createdAt,value
2019-05-06T00:01:53.940Z,92.50
2019-05-06T00:04:24.712Z,91.50
2019-05-06T00:06:54.816Z,91.40
2019-05-06T00:09:24.242Z,91.60
2019-05-06T00:11:54.425Z,91.00
2019-05-06T00:14:23.880Z,90.90
2019-05-06T00:16:55.130Z,90.90
2019-05-06T00:19:24.709Z,91.00
2019-05-06T00:21:54.205Z,91.00
2019-05-06T00:24:25.434Z,91.10
2019-05-06T00:26:58.811Z,91.60
2019-05-06T00:29:29.008Z,91.40
2019-05-06T00:31:57.776Z,91.40
2019-05-06T00:34:26.662Z,91.50
2019-05-06T00:36:55.492Z,91.60
2019-05-06T00:39:34.686Z,91.40
2019-05-06T00:42:21.316Z,91.50
2019-05-06T00:44:50.386Z,91.50
2019-05-06T00:47:19.194Z,91.80
2019-05-06T00:49:48.078Z,91.80
2019-05-06T00:52:17.147Z,91.70
2019-05-06T00:54:46.136Z,91.50
2019-05-06T00:57:14.988Z,91.20
2019-05-06T00:59:44.244Z,91.50
2019-05-06T01:02:14.005Z,92.00
2019-05-06T01:04:44.594Z,91.60
2019-05-06T01:07:14.035Z,92.00
2019-05-06T01:09:43.904Z,91.80
2019-05-06T01:12:14.336Z,91.60
2019-05-06T01:14:45.011Z,91.40
2019-05-06T01:17:13.869Z,91.80
2019-05-06T01:19:42.829Z,91.60
2019-05-06T01:22:11.655Z,91.70
2019-05-06T01:24:40.544Z,92.00
2019-05-06T01:27:09.543Z,92.20
2019-05-06T01:29:38.467Z,91.90
2019-05-06T01:32:07.322Z,92.30
2019-05-06T01:34:36.180Z,92.00
2019-05-06T01:37:05.083Z,92.20
2019-05-06T01:39:38.687Z,92.20
2019-05-06T01:42:13.726Z,92.70
2019-05-06T01:44:44.221Z,92.70
2019-05-06T01:47:14.577Z,92.60
2019-05-06T01:49:44.212Z,92.70
2019-05-06T01:52:14.676Z,92.80
2019-05-06T01:54:43.690Z,92.60
2019-05-06T01:57:13.728Z,92.30
2019-05-06T01:59:44.357Z,92.30
2019-05-06T02:02:14.281Z,92.30
2019-05-06T02:04:44.356Z,92.50
2019-05-06T02:07:14.464Z,92.40
2019-05-06T02:09:44.760Z,92.60
2019-05-06T02:12:13.938Z,92.30
2019-05-06T02:14:43.661Z,92.70
2019-05-06T02:17:14.454Z,92.90
2019-05-06T02:19:43.914Z,92.80
2019-05-06T02:22:14.536Z,93.50
2019-05-06T02:24:45.325Z,92.90
2019-05-06T02:27:17.341Z,93.50
2019-05-06T02:29:47.831Z,93.00
2019-05-06T02:32:25.903Z,93.80
2019-05-06T02:34:50.515Z,93.90
2019-05-06T02:37:25.365Z,93.80
2019-05-06T02:39:54.565Z,93.70
2019-05-06T02:42:23.945Z,93.80
2019-05-06T02:44:54.110Z,93.60
2019-05-06T02:47:34.452Z,93.70
2019-05-06T02:50:13.255Z,93.50
2019-05-06T02:52:44.018Z,94.40
2019-05-06T02:55:13.434Z,93.80
2019-05-06T02:57:43.980Z,93.70
2019-05-06T03:00:15.562Z,93.80
2019-05-06T03:02:47.938Z,93.70
2019-05-06T03:05:14.975Z,92.50
2019-05-06T03:07:43.991Z,92.80
2019-05-06T03:10:14.913Z,93.20
2019-05-06T03:12:43.850Z,93.00
2019-05-06T03:15:16.161Z,92.80
2019-05-06T03:17:43.498Z,93.70
2019-05-06T03:20:27.678Z,93.30
2019-05-06T03:22:58.267Z,93.70
2019-05-06T03:25:28.822Z,93.60
2019-05-06T03:27:57.665Z,93.60
2019-05-06T03:30:26.482Z,94.00
2019-05-06T03:33:32.046Z,93.80
2019-05-06T03:35:42.061Z,93.60
2019-05-06T03:37:56.481Z,93.70
2019-05-06T03:40:25.355Z,93.90
2019-05-06T03:42:54.261Z,93.50
2019-05-06T03:45:33.587Z,92.90
2019-05-06T03:48:05.751Z,92.60
2019-05-06T03:50:33.728Z,93.10
2019-05-06T03:53:03.389Z,92.90
2019-05-06T03:55:34.325Z,93.80
2019-05-06T03:58:03.917Z,93.30
2019-05-06T04:00:33.449Z,93.80
2019-05-06T04:03:03.241Z,93.90
2019-05-06T04:05:33.420Z,93.70
2019-05-06T04:08:03.839Z,93.70
2019-05-06T04:10:33.855Z,94.20
2019-05-06T04:13:04.306Z,93.90
2019-05-06T04:15:49.929Z,93.90
2019-05-06T04:18:23.617Z,94.00
2019-05-06T04:20:53.300Z,93.80
2019-05-06T04:23:23.932Z,94.40
2019-05-06T04:25:56.896Z,94.10
2019-05-06T04:28:34.213Z,94.50
2019-05-06T04:31:03.763Z,94.40
2019-05-06T04:33:33.448Z,94.80
2019-05-06T04:36:03.574Z,94.50
2019-05-06T04:38:33.873Z,93.70
2019-05-06T04:41:03.256Z,94.10
2019-05-06T04:43:33.637Z,94.10
2019-05-06T04:46:03.390Z,94.80
2019-05-06T04:48:33.043Z,94.90
2019-05-06T04:51:03.462Z,95.00
2019-05-06T04:53:33.951Z,95.00
2019-05-06T04:56:04.115Z,95.20
2019-05-06T04:58:33.832Z,95.20
2019-05-06T05:01:04.037Z,95.00
2019-05-06T05:03:33.707Z,94.20
2019-05-06T05:06:05.588Z,94.90
2019-05-06T05:08:39.318Z,94.40
2019-05-06T05:11:28.359Z,94.60
2019-05-06T05:14:13.392Z,94.00
2019-05-06T05:16:49.059Z,94.30
2019-05-06T05:19:17.909Z,95.10
2019-05-06T05:21:46.758Z,95.10
2019-05-06T05:24:15.542Z,95.30
2019-05-06T05:26:47.019Z,95.20
2019-05-06T05:29:14.850Z,95.20
2019-05-06T05:31:44.099Z,95.00
2019-05-06T05:34:13.010Z,94.60
2019-05-06T05:36:42.586Z,93.70
2019-05-06T05:39:12.512Z,94.00
2019-05-06T05:41:42.919Z,94.60
2019-05-06T05:44:13.594Z,94.60
2019-05-06T05:46:43.854Z,94.60
2019-05-06T05:49:18.034Z,94.30
2019-05-06T05:51:45.563Z,94.10
2019-05-06T05:54:14.531Z,93.60
2019-05-06T05:56:44.021Z,93.40
2019-05-06T05:59:12.910Z,93.20
2019-05-06T06:01:43.501Z,92.60
2019-05-06T06:04:13.083Z,92.90
2019-05-06T06:06:42.394Z,92.50
2019-05-06T06:09:12.712Z,92.80
2019-05-06T06:11:53.229Z,93.30
2019-05-06T06:14:29.722Z,93.20
2019-05-06T06:17:03.152Z,93.10
2019-05-06T06:19:33.838Z,93.00
2019-05-06T06:22:04.251Z,93.30
2019-05-06T06:24:34.852Z,93.00
2019-05-06T06:27:03.702Z,93.10
2019-05-06T06:29:32.720Z,93.40
2019-05-06T06:32:08.880Z,93.60
2019-05-06T06:34:45.850Z,93.50
2019-05-06T06:37:19.319Z,93.20
2019-05-06T06:39:52.681Z,93.20
2019-05-06T06:42:22.170Z,93.30
2019-05-06T06:44:52.106Z,94.10
2019-05-06T06:47:22.487Z,93.60
2019-05-06T06:49:53.453Z,92.90
2019-05-06T06:52:23.151Z,92.20
2019-05-06T06:54:52.826Z,92.90
2019-05-06T06:57:42.383Z,92.70
2019-05-06T07:00:22.432Z,92.50
2019-05-06T07:02:55.797Z,91.70
2019-05-06T07:05:33.251Z,91.10
2019-05-06T07:08:02.694Z,91.10
2019-05-06T07:10:43.991Z,91.10
2019-05-06T07:13:15.962Z,90.10
2019-05-06T07:15:45.142Z,89.80
2019-05-06T07:18:13.976Z,89.40
2019-05-06T07:20:44.795Z,88.60
2019-05-06T07:23:27.647Z,88.80
2019-05-06T07:25:59.484Z,88.00
2019-05-06T07:28:28.344Z,88.20
2019-05-06T07:31:13.790Z,86.20
2019-05-06T07:33:27.948Z,87.00
2019-05-06T07:35:57.030Z,87.80
2019-05-06T07:38:25.910Z,85.60
2019-05-06T07:41:14.877Z,86.20
2019-05-06T07:43:43.763Z,85.50
2019-05-06T07:46:17.406Z,85.00
2019-05-06T07:48:46.473Z,85.60
2019-05-06T07:51:15.646Z,84.50
2019-05-06T07:53:44.420Z,85.00
2019-05-06T07:56:13.327Z,79.70
2019-05-06T07:58:43.460Z,81.30
2019-05-06T08:01:13.630Z,83.90
2019-05-06T08:03:42.923Z,81.70
2019-05-06T08:06:13.180Z,82.30
2019-05-06T08:08:43.280Z,83.10
2019-05-06T08:11:12.725Z,81.30
2019-05-06T08:13:43.508Z,81.80
2019-05-06T08:16:13.093Z,81.00
2019-05-06T08:18:42.691Z,80.60
2019-05-06T08:21:19.026Z,79.70
2019-05-06T08:23:49.483Z,77.00
2019-05-06T08:26:19.177Z,77.80
2019-05-06T08:28:48.074Z,75.60
2019-05-06T08:31:18.504Z,75.00
2019-05-06T08:33:47.376Z,75.50
2019-05-06T08:36:34.867Z,74.70
2019-05-06T08:39:05.661Z,75.40
2019-05-06T08:41:34.503Z,77.20
2019-05-06T08:44:03.348Z,76.20
2019-05-06T08:46:32.839Z,74.10
2019-05-06T08:49:03.019Z,70.20
2019-05-06T08:51:48.733Z,68.10
2019-05-06T08:54:19.220Z,66.20
2019-05-06T08:56:48.154Z,69.00
2019-05-06T08:59:17.020Z,66.50
2019-05-06T09:01:49.859Z,64.70
2019-05-06T09:04:18.727Z,62.20
2019-05-06T09:06:47.519Z,65.80
2019-05-06T09:09:16.422Z,63.40
2019-05-06T09:11:45.357Z,66.60
2019-05-06T09:14:14.332Z,64.50
2019-05-06T09:16:44.002Z,64.60
2019-05-06T09:19:13.283Z,63.50
2019-05-06T09:21:45.808Z,64.20
2019-05-06T09:24:13.171Z,64.40
2019-05-06T09:26:43.682Z,64.30
2019-05-06T09:29:14.356Z,64.20
2019-05-06T09:31:44.878Z,63.00
2019-05-06T09:34:32.622Z,63.60
2019-05-06T09:37:18.035Z,64.70
2019-05-06T09:39:46.993Z,64.70
2019-05-06T09:42:15.879Z,61.90
2019-05-06T09:44:45.284Z,64.30
2019-05-06T09:47:32.986Z,62.40
2019-05-06T09:50:02.889Z,64.40
2019-05-06T09:52:33.273Z,62.40
2019-05-06T09:55:06.770Z,63.50
2019-05-06T09:57:53.653Z,64.40
2019-05-06T10:00:23.496Z,64.70
2019-05-06T10:02:53.522Z,60.80
2019-05-06T10:05:22.350Z,61.30
2019-05-06T10:07:52.380Z,63.00
2019-05-06T10:10:22.336Z,60.80
2019-05-06T10:12:53.020Z,57.10
2019-05-06T10:15:22.213Z,58.50
2019-05-06T10:18:12.710Z,60.30
2019-05-06T10:20:43.034Z,60.70
2019-05-06T10:23:12.580Z,61.30
2019-05-06T10:25:43.658Z,61.70
2019-05-06T10:28:13.720Z,61.70
2019-05-06T10:30:42.490Z,60.80
2019-05-06T10:33:22.250Z,59.10
2019-05-06T10:35:52.871Z,57.80
2019-05-06T10:38:37.025Z,57.80
2019-05-06T10:41:13.017Z,57.60
2019-05-06T10:43:45.440Z,56.00
2019-05-06T10:46:14.512Z,53.30
2019-05-06T10:48:43.383Z,51.30
2019-05-06T10:51:16.848Z,52.70
2019-05-06T10:53:44.740Z,55.50
2019-05-06T10:56:27.310Z,53.60
2019-05-06T10:59:06.399Z,56.80
2019-05-06T11:01:36.941Z,57.70
2019-05-06T11:04:05.712Z,56.10
2019-05-06T11:06:34.595Z,57.70
2019-05-06T11:09:04.202Z,58.40
2019-05-06T11:11:38.526Z,56.60
2019-05-06T11:14:04.708Z,57.70
2019-05-06T11:16:33.781Z,59.50
2019-05-06T11:19:05.161Z,57.70
2019-05-06T11:21:33.455Z,59.90
2019-05-06T11:24:05.992Z,60.10
2019-05-06T11:26:35.954Z,60.40
2019-05-06T11:29:06.960Z,59.70
2019-05-06T11:31:46.146Z,59.90
2019-05-06T11:34:19.190Z,60.20
2019-05-06T11:36:52.600Z,62.80
2019-05-06T11:39:23.212Z,63.70
2019-05-06T11:42:07.340Z,63.90
2019-05-06T11:44:23.952Z,62.10
2019-05-06T11:46:53.097Z,63.00
2019-05-06T11:49:23.298Z,63.90
2019-05-06T11:51:52.451Z,61.70
2019-05-06T11:54:24.457Z,62.00
2019-05-06T11:56:57.825Z,61.10
2019-05-06T11:59:24.690Z,61.60
2019-05-06T12:01:55.138Z,60.30
2019-05-06T12:04:24.180Z,59.80
2019-05-06T12:07:09.261Z,59.50
2019-05-06T12:09:23.980Z,61.70
2019-05-06T12:11:53.054Z,62.30
2019-05-06T12:14:22.766Z,62.80
2019-05-06T12:16:54.840Z,62.20
2019-05-06T12:19:22.672Z,64.00
2019-05-06T12:21:51.770Z,65.90
2019-05-06T12:24:22.814Z,66.40
2019-05-06T12:26:52.225Z,66.90
2019-05-06T12:29:21.337Z,65.40
2019-05-06T12:31:52.993Z,67.10
2019-05-06T12:34:22.090Z,67.10
2019-05-06T12:36:52.836Z,68.30
2019-05-06T12:39:23.731Z,69.50
2019-05-06T12:42:12.699Z,69.40
2019-05-06T12:44:42.957Z,68.70
2019-05-06T12:47:28.316Z,67.50
2019-05-06T12:49:57.295Z,69.90
2019-05-06T12:52:26.081Z,68.30
2019-05-06T12:55:14.570Z,65.40
2019-05-06T12:57:28.651Z,69.30
2019-05-06T12:59:57.647Z,67.10
2019-05-06T13:02:26.445Z,65.90
2019-05-06T13:05:00.539Z,69.20
2019-05-06T13:07:27.461Z,63.80
2019-05-06T13:09:56.449Z,62.00
2019-05-06T13:12:26.877Z,63.30
2019-05-06T13:14:56.003Z,57.90
2019-05-06T13:17:26.424Z,55.60
2019-05-06T13:19:55.296Z,56.70
2019-05-06T13:22:34.985Z,59.00
2019-05-06T13:25:05.547Z,60.10
2019-05-06T13:27:34.440Z,61.50
2019-05-06T13:30:04.855Z,62.90
2019-05-06T13:32:47.354Z,65.00
2019-05-06T13:35:16.406Z,62.30
2019-05-06T13:37:45.245Z,59.20
2019-05-06T13:40:14.221Z,58.40
2019-05-06T13:42:44.794Z,59.60
2019-05-06T13:45:13.873Z,56.40
2019-05-06T13:47:47.111Z,57.00
2019-05-06T13:50:17.779Z,60.70
2019-05-06T13:52:48.445Z,61.30
2019-05-06T13:55:17.485Z,60.20
2019-05-06T13:57:46.413Z,60.10
2019-05-06T14:00:15.564Z,60.90
2019-05-06T14:02:55.414Z,56.90
2019-05-06T14:05:24.374Z,58.90
2019-05-06T14:07:53.549Z,60.00
2019-05-06T14:10:22.659Z,57.40
2019-05-06T14:12:53.181Z,54.50
2019-05-06T14:15:23.224Z,56.00
2019-05-06T14:17:53.352Z,59.90
2019-05-06T14:20:22.572Z,59.80
2019-05-06T14:22:52.654Z,59.50
2019-05-06T14:25:40.046Z,53.40
2019-05-06T14:28:19.624Z,55.90
2019-05-06T14:30:53.270Z,56.10
2019-05-06T14:33:23.647Z,56.10
2019-05-06T14:35:52.940Z,56.00
2019-05-06T14:38:24.662Z,55.30
2019-05-06T14:41:07.972Z,53.70
2019-05-06T14:43:36.688Z,54.40
2019-05-06T14:46:05.759Z,54.70
2019-05-06T14:48:35.634Z,55.20
2019-05-06T14:51:05.245Z,56.10
2019-05-06T14:53:37.221Z,55.30
2019-05-06T14:56:07.744Z,55.10
2019-05-06T14:58:36.705Z,55.20
2019-05-06T15:01:05.718Z,56.50
2019-05-06T15:03:34.674Z,56.90
2019-05-06T15:06:03.572Z,57.40
2019-05-06T15:08:34.257Z,59.20
2019-05-06T15:11:03.398Z,59.60
2019-05-06T15:13:32.396Z,57.70
2019-05-06T15:16:03.567Z,57.80
2019-05-06T15:18:32.154Z,58.30
2019-05-06T15:21:28.664Z,58.90
2019-05-06T15:23:31.825Z,59.80
2019-05-06T15:26:02.912Z,58.70
2019-05-06T15:28:33.625Z,57.90
2019-05-06T15:31:06.358Z,59.30
2019-05-06T15:33:36.867Z,60.70
2019-05-06T15:36:09.855Z,59.50
2019-05-06T15:38:38.962Z,59.30
2019-05-06T15:41:08.109Z,59.30
2019-05-06T15:43:36.903Z,58.60
2019-05-06T15:46:05.805Z,60.40
2019-05-06T15:48:34.670Z,62.20
2019-05-06T15:51:03.482Z,63.20
2019-05-06T15:53:33.180Z,62.90
2019-05-06T15:56:02.205Z,63.20
2019-05-06T15:58:32.437Z,62.90
2019-05-06T16:01:03.209Z,62.60
2019-05-06T16:03:33.423Z,63.40
2019-05-06T16:06:02.449Z,64.30
2019-05-06T16:08:32.101Z,65.60
2019-05-06T16:11:02.904Z,65.40
2019-05-06T16:13:32.040Z,64.80
2019-05-06T16:16:02.960Z,65.70
2019-05-06T16:18:32.721Z,66.00
2019-05-06T16:21:02.954Z,67.30
2019-05-06T16:23:45.568Z,66.90
2019-05-06T16:26:14.624Z,65.90
2019-05-06T16:28:44.958Z,65.80
2019-05-06T16:31:14.064Z,65.50
2019-05-06T16:33:43.170Z,67.90
2019-05-06T16:36:13.158Z,68.30
2019-05-06T16:38:42.834Z,67.40
2019-05-06T16:41:13.887Z,67.20
2019-05-06T16:43:42.750Z,67.90
2019-05-06T16:46:12.646Z,67.00
2019-05-06T16:48:45.039Z,67.30
2019-05-06T16:51:12.647Z,67.30
2019-05-06T16:53:42.938Z,66.80
2019-05-06T16:56:16.593Z,67.50
2019-05-06T16:58:47.467Z,67.00
2019-05-06T17:01:16.524Z,67.50
2019-05-06T17:03:47.112Z,67.70
2019-05-06T17:06:20.093Z,68.30
2019-05-06T17:08:52.695Z,67.90
2019-05-06T17:11:28.268Z,69.20
2019-05-06T17:13:52.375Z,69.80
2019-05-06T17:16:22.064Z,70.60
2019-05-06T17:18:56.226Z,68.70
2019-05-06T17:21:22.301Z,68.70
2019-05-06T17:23:52.251Z,69.80
2019-05-06T17:26:22.461Z,69.30
2019-05-06T17:29:09.562Z,67.10
2019-05-06T17:31:49.031Z,66.80
2019-05-06T17:34:19.481Z,67.70
2019-05-06T17:36:49.223Z,68.60
2019-05-06T17:39:18.097Z,69.50
2019-05-06T17:41:49.093Z,72.90
2019-05-06T17:44:18.946Z,70.60
2019-05-06T17:46:55.078Z,69.50
2019-05-06T17:49:31.593Z,69.20
2019-05-06T17:52:02.999Z,69.00
2019-05-06T17:54:32.627Z,69.30
2019-05-06T17:57:04.430Z,69.60
2019-05-06T17:59:33.194Z,71.10
2019-05-06T18:02:10.204Z,69.30
2019-05-06T18:04:39.119Z,70.20
2019-05-06T18:07:07.899Z,69.70
2019-05-06T18:09:36.731Z,70.10
2019-05-06T18:12:05.583Z,71.50
2019-05-06T18:14:34.494Z,72.60
2019-05-06T18:17:03.747Z,71.60
2019-05-06T18:19:33.848Z,74.40
2019-05-06T18:22:03.156Z,76.20
2019-05-06T18:24:33.259Z,76.30
2019-05-06T18:27:02.853Z,76.40
2019-05-06T18:29:33.397Z,77.20
2019-05-06T18:32:03.722Z,78.30
2019-05-06T18:34:33.220Z,72.90
2019-05-06T18:37:03.157Z,74.60
2019-05-06T18:39:33.861Z,77.20
2019-05-06T18:42:15.523Z,77.20
2019-05-06T18:44:33.707Z,75.00
2019-05-06T18:47:02.934Z,75.20
2019-05-06T18:49:33.570Z,77.20
2019-05-06T18:52:02.615Z,77.90
2019-05-06T18:54:33.858Z,78.60
2019-05-06T18:57:04.795Z,79.00
2019-05-06T18:59:33.251Z,79.50
2019-05-06T19:02:02.646Z,79.00
2019-05-06T19:04:33.536Z,80.40
2019-05-06T19:07:12.423Z,79.30
2019-05-06T19:09:43.653Z,75.50
2019-05-06T19:12:14.198Z,76.50
2019-05-06T19:14:43.383Z,76.90
2019-05-06T19:17:13.146Z,80.30
2019-05-06T19:19:42.775Z,80.50
2019-05-06T19:22:13.933Z,78.10
2019-05-06T19:24:44.665Z,78.20
2019-05-06T19:27:13.389Z,76.70
2019-05-06T19:29:43.292Z,78.80
2019-05-06T19:32:12.466Z,78.20
2019-05-06T19:34:42.287Z,76.10
2019-05-06T19:37:11.650Z,78.00
2019-05-06T19:39:42.889Z,78.10
2019-05-06T19:42:12.900Z,78.70
2019-05-06T19:44:43.082Z,77.70
2019-05-06T19:47:13.242Z,75.70
2019-05-06T19:49:42.507Z,76.60
2019-05-06T19:52:11.504Z,76.60
2019-05-06T19:54:42.359Z,78.70
2019-05-06T19:57:12.126Z,78.40
2019-05-06T19:59:42.450Z,76.20
2019-05-06T20:02:12.923Z,78.00
2019-05-06T20:04:44.329Z,76.00
2019-05-06T20:07:15.261Z,75.30
2019-05-06T20:10:03.229Z,77.50
2019-05-06T20:12:35.986Z,75.50
2019-05-06T20:15:25.342Z,77.60
2019-05-06T20:17:54.281Z,81.30
2019-05-06T20:20:23.158Z,81.00
2019-05-06T20:22:52.399Z,75.40
2019-05-06T20:25:22.053Z,77.10
2019-05-06T20:27:52.648Z,76.90
2019-05-06T20:30:21.977Z,78.60
2019-05-06T20:32:52.163Z,81.60
2019-05-06T20:35:22.348Z,83.80
2019-05-06T20:37:53.369Z,82.60
2019-05-06T20:40:23.110Z,82.10
2019-05-06T20:42:52.111Z,82.60
2019-05-06T20:45:22.327Z,79.90
2019-05-06T20:47:52.479Z,82.50
2019-05-06T20:50:22.521Z,80.70
2019-05-06T20:52:52.130Z,82.30
2019-05-06T20:55:22.906Z,81.50
2019-05-06T20:57:52.943Z,80.70
2019-05-06T21:00:22.461Z,81.50
2019-05-06T21:02:53.441Z,79.70
2019-05-06T21:05:22.897Z,80.40
2019-05-06T21:07:52.636Z,79.10
2019-05-06T21:10:22.145Z,80.50
2019-05-06T21:12:53.178Z,80.70
2019-05-06T21:15:22.895Z,80.50
2019-05-06T21:17:52.050Z,78.90
2019-05-06T21:20:20.989Z,79.10
2019-05-06T21:22:52.626Z,81.40
2019-05-06T21:25:22.601Z,80.90
2019-05-06T21:27:53.210Z,83.10
2019-05-06T21:30:22.402Z,83.30
2019-05-06T21:32:52.069Z,84.30
2019-05-06T21:35:22.252Z,81.40
2019-05-06T21:37:52.935Z,78.90
2019-05-06T21:40:22.206Z,79.10
2019-05-06T21:42:51.467Z,78.90
2019-05-06T21:45:22.110Z,79.80
2019-05-06T21:47:52.866Z,79.70
2019-05-06T21:50:22.794Z,79.00
2019-05-06T21:52:52.095Z,80.30
2019-05-06T21:55:22.730Z,80.80
2019-05-06T21:57:52.931Z,81.30
2019-05-06T22:00:23.862Z,83.10
2019-05-06T22:02:53.076Z,82.70
2019-05-06T22:05:22.635Z,83.10
2019-05-06T22:07:52.610Z,82.60
2019-05-06T22:10:22.733Z,83.70
2019-05-06T22:12:52.720Z,83.70
2019-05-06T22:15:22.764Z,84.10
2019-05-06T22:17:54.301Z,85.10
2019-05-06T22:20:23.791Z,84.10
2019-05-06T22:22:52.797Z,83.80
2019-05-06T22:25:22.175Z,83.60
2019-05-06T22:27:51.931Z,85.70
2019-05-06T22:30:23.636Z,86.70
2019-05-06T22:32:52.677Z,85.60
2019-05-06T22:35:23.074Z,86.20
2019-05-06T22:37:53.204Z,84.70
2019-05-06T22:40:23.789Z,86.10
2019-05-06T22:42:53.115Z,85.60
2019-05-06T22:45:24.636Z,85.70
2019-05-06T22:47:55.128Z,85.90
2019-05-06T22:50:24.119Z,85.40
2019-05-06T22:52:52.977Z,86.70
2019-05-06T22:55:22.143Z,85.70
2019-05-06T22:57:52.874Z,86.40
2019-05-06T23:00:23.215Z,87.40
2019-05-06T23:02:56.718Z,87.40
2019-05-06T23:05:25.562Z,87.40
2019-05-06T23:07:54.512Z,87.40
2019-05-06T23:10:24.821Z,88.20
2019-05-06T23:12:53.903Z,88.60
2019-05-06T23:15:22.854Z,90.20
2019-05-06T23:17:52.689Z,90.60
2019-05-06T23:20:24.182Z,90.80
2019-05-06T23:22:52.177Z,91.20
2019-05-06T23:25:22.094Z,91.30
2019-05-06T23:27:53.007Z,91.50
2019-05-06T23:30:23.624Z,91.60
2019-05-06T23:32:53.033Z,92.00
2019-05-06T23:35:22.095Z,92.00
2019-05-06T23:38:27.583Z,92.40
2019-05-06T23:41:33.036Z,92.20
2019-05-06T23:44:45.659Z,92.20
2019-05-06T23:47:45.535Z,92.20
2019-05-06T23:50:50.947Z,92.40
2019-05-06T23:53:56.599Z,92.20
2019-05-06T23:56:45.644Z,92.60
2019-05-06T23:59:17.049Z,92.80
